sensor_id;sensor_type;location;lat;lon;timestamp;pressure;altitude;pressure_sealevel;temperature;humidity
73240;BME280;61452;40.054;4.110;2023-12-07T00:03:41;102131.16;;;16.44;100.00
73240;BME280;61452;40.054;4.110;2023-12-07T00:08:43;102132.00;;;16.44;100.00
73240;BME280;61452;40.054;4.110;2023-12-07T00:13:45;102138.09;;;16.46;100.00
73240;BME280;61452;40.054;4.110;2023-12-07T00:18:47;102145.25;;;16.44;100.00
73240;BME280;61452;40.054;4.110;2023-12-07T00:23:49;102143.47;;;16.45;100.00
73240;BME280;61452;40.054;4.110;2023-12-07T00:28:51;102136.44;;;16.44;100.00
73240;BME280;61452;40.054;4.110;2023-12-07T00:33:53;102121.41;;;16.44;100.00
73240;BME280;61452;40.054;4.110;2023-12-07T00:38:55;102123.13;;;16.45;100.00
73240;BME280;61452;40.054;4.110;2023-12-07T00:43:57;102125.72;;;16.47;100.00
73240;BME280;61452;40.054;4.110;2023-12-07T00:49:00;102125.84;;;16.44;100.00
73240;BME280;61452;40.054;4.110;2023-12-07T00:54:02;102123.28;;;16.42;100.00
73240;BME280;61452;40.054;4.110;2023-12-07T00:59:05;102117.97;;;16.42;100.00
73240;BME280;61452;40.054;4.110;2023-12-07T01:04:07;102118.84;;;16.43;100.00
73240;BME280;61452;40.054;4.110;2023-12-07T01:09:09;102125.00;;;16.43;100.00
73240;BME280;61452;40.054;4.110;2023-12-07T01:14:15;102119.69;;;16.43;100.00
73240;BME280;61452;40.054;4.110;2023-12-07T01:19:18;102110.03;;;16.42;100.00
73240;BME280;61452;40.054;4.110;2023-12-07T01:24:20;102113.53;;;16.43;100.00
73240;BME280;61452;40.054;4.110;2023-12-07T01:29:22;102126.03;;;16.41;100.00
73240;BME280;61452;40.054;4.110;2023-12-07T01:34:24;102123.28;;;16.42;100.00
73240;BME280;61452;40.054;4.110;2023-12-07T01:39:26;102110.03;;;16.42;100.00
73240;BME280;61452;40.054;4.110;2023-12-07T01:44:29;102116.28;;;16.41;100.00
73240;BME280;61452;40.054;4.110;2023-12-07T01:49:31;102122.53;;;16.40;100.00
73240;BME280;61452;40.054;4.110;2023-12-07T01:54:34;102136.63;;;16.41;100.00
73240;BME280;61452;40.054;4.110;2023-12-07T01:59:37;102141.91;;;16.41;100.00
73240;BME280;61452;40.054;4.110;2023-12-07T02:04:39;102145.50;;;16.40;100.00
73240;BME280;61452;40.054;4.110;2023-12-07T02:09:41;102141.91;;;16.41;100.00
73240;BME280;61452;40.054;4.110;2023-12-07T02:14:43;102140.97;;;16.42;100.00
73240;BME280;61452;40.054;4.110;2023-12-07T02:25:10;102171.06;;;16.41;100.00
73240;BME280;61452;40.054;4.110;2023-12-07T02:30:13;102176.34;;;16.41;100.00
73240;BME280;61452;40.054;4.110;2023-12-07T02:35:15;102174.69;;;16.38;100.00
73240;BME280;61452;40.054;4.110;2023-12-07T02:40:21;102172.13;;;16.37;100.00
73240;BME280;61452;40.054;4.110;2023-12-07T02:45:24;102169.47;;;16.37;100.00
73240;BME280;61452;40.054;4.110;2023-12-07T02:50:27;102148.28;;;16.37;100.00
73240;BME280;61452;40.054;4.110;2023-12-07T02:55:29;102141.28;;;16.36;100.00
73240;BME280;61452;40.054;4.110;2023-12-07T03:00:32;102132.41;;;16.37;100.00
73240;BME280;61452;40.054;4.110;2023-12-07T03:05:34;102146.50;;;16.37;100.00
73240;BME280;61452;40.054;4.110;2023-12-07T03:10:36;102140.34;;;16.37;100.00
73240;BME280;61452;40.054;4.110;2023-12-07T03:15:38;102126.25;;;16.36;100.00
73240;BME280;61452;40.054;4.110;2023-12-07T03:20:40;102116.50;;;16.37;100.00
73240;BME280;61452;40.054;4.110;2023-12-07T03:25:43;102114.78;;;16.36;100.00
73240;BME280;61452;40.054;4.110;2023-12-07T03:30:45;102112.16;;;16.36;100.00
73240;BME280;61452;40.054;4.110;2023-12-07T03:35:47;102118.31;;;16.36;100.00
73240;BME280;61452;40.054;4.110;2023-12-07T03:40:50;102120.94;;;16.36;100.00
73240;BME280;61452;40.054;4.110;2023-12-07T03:45:52;102124.44;;;16.37;100.00
73240;BME280;61452;40.054;4.110;2023-12-07T03:50:54;102129.75;;;16.37;100.00
73240;BME280;61452;40.054;4.110;2023-12-07T03:55:56;102121.91;;;16.35;100.00
73240;BME280;61452;40.054;4.110;2023-12-07T04:00:58;102124.56;;;16.35;100.00
73240;BME280;61452;40.054;4.110;2023-12-07T04:06:01;102131.66;;;16.35;100.00
73240;BME280;61452;40.054;4.110;2023-12-07T04:11:04;102151.03;;;16.35;100.00
73240;BME280;61452;40.054;4.110;2023-12-07T04:16:06;102146.75;;;16.33;100.00
73240;BME280;61452;40.054;4.110;2023-12-07T04:21:09;102149.31;;;16.34;100.00
73240;BME280;61452;40.054;4.110;2023-12-07T04:26:11;102137.88;;;16.34;100.00
73240;BME280;61452;40.054;4.110;2023-12-07T04:31:13;102146.75;;;16.33;100.00
73240;BME280;61452;40.054;4.110;2023-12-07T04:36:16;102141.44;;;16.33;100.00
73240;BME280;61452;40.054;4.110;2023-12-07T04:41:18;102131.72;;;16.33;100.00
73240;BME280;61452;40.054;4.110;2023-12-07T04:46:20;102129.13;;;16.32;100.00
73240;BME280;61452;40.054;4.110;2023-12-07T04:51:22;102136.16;;;16.33;100.00
73240;BME280;61452;40.054;4.110;2023-12-07T04:56:24;102127.28;;;16.34;100.00
73240;BME280;61452;40.054;4.110;2023-12-07T05:01:26;102134.50;;;16.30;100.00
73240;BME280;61452;40.054;4.110;2023-12-07T05:06:30;102138.88;;;16.31;100.00
73240;BME280;61452;40.054;4.110;2023-12-07T05:11:32;102139.72;;;16.32;100.00
73240;BME280;61452;40.054;4.110;2023-12-07T05:16:34;102135.34;;;16.31;100.00
73240;BME280;61452;40.054;4.110;2023-12-07T05:21:37;102137.06;;;16.32;100.00
73240;BME280;61452;40.054;4.110;2023-12-07T05:26:43;102152.09;;;16.31;100.00
73240;BME280;61452;40.054;4.110;2023-12-07T05:31:50;102160.97;;;16.30;100.00
73240;BME280;61452;40.054;4.110;2023-12-07T05:36:52;102160.13;;;16.30;100.00
73240;BME280;61452;40.054;4.110;2023-12-07T05:41:55;102159.28;;;16.29;100.00
73240;BME280;61452;40.054;4.110;2023-12-07T05:46:57;102175.19;;;16.29;100.00
73240;BME280;61452;40.054;4.110;2023-12-07T05:51:59;102179.69;;;16.27;100.00
73240;BME280;61452;40.054;4.110;2023-12-07T05:57:01;102199.00;;;16.29;100.00
73240;BME280;61452;40.054;4.110;2023-12-07T06:02:04;102197.28;;;16.28;100.00
73240;BME280;61452;40.054;4.110;2023-12-07T06:07:08;102180.53;;;16.28;100.00
73240;BME280;61452;40.054;4.110;2023-12-07T06:12:10;102189.25;;;16.30;100.00
73240;BME280;61452;40.054;4.110;2023-12-07T06:17:13;102176.09;;;16.28;100.00
73240;BME280;61452;40.054;4.110;2023-12-07T06:22:15;102176.09;;;16.28;100.00
73240;BME280;61452;40.054;4.110;2023-12-07T06:27:17;102167.63;;;16.22;100.00
73240;BME280;61452;40.054;4.110;2023-12-07T06:32:20;102170.03;;;16.26;100.00
73240;BME280;61452;40.054;4.110;2023-12-07T06:37:22;102164.66;;;16.28;100.00
73240;BME280;61452;40.054;4.110;2023-12-07T06:42:24;102155.00;;;16.27;100.00
73240;BME280;61452;40.054;4.110;2023-12-07T06:47:27;102159.38;;;16.28;100.00
73240;BME280;61452;40.054;4.110;2023-12-07T06:52:29;102173.53;;;16.27;100.00
73240;BME280;61452;40.054;4.110;2023-12-07T06:57:32;102172.66;;;16.26;100.00
73240;BME280;61452;40.054;4.110;2023-12-07T07:02:34;102175.31;;;16.26;100.00
73240;BME280;61452;40.054;4.110;2023-12-07T07:07:36;102169.22;;;16.24;100.00
73240;BME280;61452;40.054;4.110;2023-12-07T07:12:38;102174.53;;;16.24;100.00
73240;BME280;61452;40.054;4.110;2023-12-07T07:17:40;102177.09;;;16.26;100.00
73240;BME280;61452;40.054;4.110;2023-12-07T07:22:42;102185.91;;;16.26;100.00
73240;BME280;61452;40.054;4.110;2023-12-07T07:27:48;102204.50;;;16.25;100.00
73240;BME280;61452;40.054;4.110;2023-12-07T07:32:50;102208.09;;;16.24;100.00
73240;BME280;61452;40.054;4.110;2023-12-07T07:37:52;102211.69;;;16.23;100.00
73240;BME280;61452;40.054;4.110;2023-12-07T07:42:56;102214.41;;;16.21;100.00
73240;BME280;61452;40.054;4.110;2023-12-07T07:47:58;102215.41;;;16.18;100.00
73240;BME280;61452;40.054;4.110;2023-12-07T07:53:00;102219.63;;;16.23;100.00
73240;BME280;61452;40.054;4.110;2023-12-07T07:58:03;102210.09;;;16.18;100.00
73240;BME280;61452;40.054;4.110;2023-12-07T08:03:05;102211.69;;;16.23;100.00
73240;BME280;61452;40.054;4.110;2023-12-07T08:08:08;102217.91;;;16.22;100.00
73240;BME280;61452;40.054;4.110;2023-12-07T08:13:11;102201.16;;;16.21;100.00
73240;BME280;61452;40.054;4.110;2023-12-07T08:18:13;102199.44;;;16.20;100.00
73240;BME280;61452;40.054;4.110;2023-12-07T08:23:16;102216.25;;;16.19;100.00
73240;BME280;61452;40.054;4.110;2023-12-07T08:28:18;102213.53;;;16.21;100.00
73240;BME280;61452;40.054;4.110;2023-12-07T08:33:20;102211.81;;;16.19;100.00
73240;BME280;61452;40.054;4.110;2023-12-07T08:38:22;102231.22;;;16.20;100.00
73240;BME280;61452;40.054;4.110;2023-12-07T08:43:25;102232.94;;;16.21;100.00
73240;BME280;61452;40.054;4.110;2023-12-07T08:48:27;102228.56;;;16.20;100.00
73240;BME280;61452;40.054;4.110;2023-12-07T08:53:29;102224.19;;;16.19;100.00
73240;BME280;61452;40.054;4.110;2023-12-07T08:58:31;102226.84;;;16.19;100.00
73240;BME280;61452;40.054;4.110;2023-12-07T09:03:34;102229.56;;;16.17;100.00
73240;BME280;61452;40.054;4.110;2023-12-07T09:08:36;102248.88;;;16.19;100.00
73240;BME280;61452;40.054;4.110;2023-12-07T09:13:38;102249.88;;;16.17;100.00
73240;BME280;61452;40.054;4.110;2023-12-07T09:18:43;102249.88;;;16.17;100.00
73240;BME280;61452;40.054;4.110;2023-12-07T09:23:48;102254.25;;;16.18;100.00
73240;BME280;61452;40.054;4.110;2023-12-07T09:28:50;102251.59;;;16.18;100.00
73240;BME280;61452;40.054;4.110;2023-12-07T09:33:53;102245.53;;;16.16;100.00
73240;BME280;61452;40.054;4.110;2023-12-07T09:38:56;102253.38;;;16.17;100.00
73240;BME280;61452;40.054;4.110;2023-12-07T09:43:58;102255.97;;;16.19;100.00
73240;BME280;61452;40.054;4.110;2023-12-07T09:49:02;102264.78;;;16.19;100.00
73240;BME280;61452;40.054;4.110;2023-12-07T09:54:04;102256.91;;;16.18;100.00
73240;BME280;61452;40.054;4.110;2023-12-07T09:59:07;102255.09;;;16.18;100.00
73240;BME280;61452;40.054;4.110;2023-12-07T10:04:20;102250.84;;;16.16;100.00
73240;BME280;61452;40.054;4.110;2023-12-07T10:09:26;102254.25;;;16.18;100.00
73240;BME280;61452;40.054;4.110;2023-12-07T10:14:34;102233.06;;;16.18;100.00
73240;BME280;61452;40.054;4.110;2023-12-07T10:19:36;102221.63;;;16.17;100.00
73240;BME280;61452;40.054;4.110;2023-12-07T10:24:39;102224.28;;;16.17;100.00
73240;BME280;61452;40.054;4.110;2023-12-07T10:29:44;102217.34;;;16.15;100.00
73240;BME280;61452;40.054;4.110;2023-12-07T10:34:47;102206.69;;;16.16;100.00
73240;BME280;61452;40.054;4.110;2023-12-07T10:39:49;102203.94;;;16.18;100.00
73240;BME280;61452;40.054;4.110;2023-12-07T10:44:56;102191.56;;;16.18;100.00
73240;BME280;61452;40.054;4.110;2023-12-07T10:50:00;102183.69;;;16.17;100.00
73240;BME280;61452;40.054;4.110;2023-12-07T10:55:07;102169.63;;;16.16;100.00
73240;BME280;61452;40.054;4.110;2023-12-07T11:00:13;102154.59;;;16.17;100.00
73240;BME280;61452;40.054;4.110;2023-12-07T11:05:15;102142.19;;;16.17;100.00
73240;BME280;61452;40.054;4.110;2023-12-07T11:10:45;102125.56;;;16.15;100.00
73240;BME280;61452;40.054;4.110;2023-12-07T11:15:50;102113.19;;;16.16;100.00
73240;BME280;61452;40.054;4.110;2023-12-07T11:20:53;102106.09;;;16.16;100.00
73240;BME280;61452;40.054;4.110;2023-12-07T11:25:56;102100.81;;;16.16;100.00
73240;BME280;61452;40.054;4.110;2023-12-07T11:31:00;102092.75;;;16.18;100.00
73240;BME280;61452;40.054;4.110;2023-12-07T11:36:04;102086.78;;;16.14;100.00
73240;BME280;61452;40.054;4.110;2023-12-07T11:41:07;102077.06;;;16.15;100.00
73240;BME280;61452;40.054;4.110;2023-12-07T11:46:10;102062.09;;;16.14;100.00
73240;BME280;61452;40.054;4.110;2023-12-07T11:51:13;102052.31;;;16.16;100.00
73240;BME280;61452;40.054;4.110;2023-12-07T11:56:16;102043.50;;;16.15;100.00
73240;BME280;61452;40.054;4.110;2023-12-07T12:01:24;102028.63;;;16.13;100.00
73240;BME280;61452;40.054;4.110;2023-12-07T12:06:27;102019.75;;;16.14;100.00
73240;BME280;61452;40.054;4.110;2023-12-07T12:11:30;102028.56;;;16.14;100.00
73240;BME280;61452;40.054;4.110;2023-12-07T12:16:32;102019.75;;;16.14;100.00
73240;BME280;61452;40.054;4.110;2023-12-07T12:21:38;102025.13;;;16.12;100.00
73240;BME280;61452;40.054;4.110;2023-12-07T12:26:42;102012.81;;;16.11;100.00
73240;BME280;61452;40.054;4.110;2023-12-07T12:31:44;102000.38;;;16.13;100.00
73240;BME280;61452;40.054;4.110;2023-12-07T12:36:46;101996.94;;;16.11;100.00
73240;BME280;61452;40.054;4.110;2023-12-07T12:41:54;101983.69;;;16.11;100.00
73240;BME280;61452;40.054;4.110;2023-12-07T12:46:57;101975.69;;;16.13;100.00
73240;BME280;61452;40.054;4.110;2023-12-07T12:51:59;101960.66;;;16.13;100.00
73240;BME280;61452;40.054;4.110;2023-12-07T12:57:01;101960.72;;;16.12;100.00
73240;BME280;61452;40.054;4.110;2023-12-07T13:02:03;101957.09;;;16.14;100.00
73240;BME280;61452;40.054;4.110;2023-12-07T13:07:12;101952.72;;;16.13;100.00
73240;BME280;61452;40.054;4.110;2023-12-07T13:12:14;101953.56;;;16.14;100.00
73240;BME280;61452;40.054;4.110;2023-12-07T13:17:17;101962.38;;;16.14;100.00
73240;BME280;61452;40.054;4.110;2023-12-07T13:22:19;101944.78;;;16.13;100.00
73240;BME280;61452;40.054;4.110;2023-12-07T13:27:21;101939.47;;;16.13;100.00
73240;BME280;61452;40.054;4.110;2023-12-07T13:32:23;101933.34;;;16.13;100.00
73240;BME280;61452;40.054;4.110;2023-12-07T13:37:25;101923.44;;;16.16;100.00
73240;BME280;61452;40.054;4.110;2023-12-07T13:42:29;101928.75;;;16.16;100.00
73240;BME280;61452;40.054;4.110;2023-12-07T13:47:32;101920.81;;;16.16;100.00
73240;BME280;61452;40.054;4.110;2023-12-07T13:52:34;101920.81;;;16.16;100.00
73240;BME280;61452;40.054;4.110;2023-12-07T13:57:36;101923.44;;;16.16;100.00
73240;BME280;61452;40.054;4.110;2023-12-07T14:02:38;101918.16;;;16.16;100.00
73240;BME280;61452;40.054;4.110;2023-12-07T14:07:40;101918.16;;;16.16;100.00
73240;BME280;61452;40.054;4.110;2023-12-07T14:12:42;101916.34;;;16.17;100.00
73240;BME280;61452;40.054;4.110;2023-12-07T14:17:45;101910.22;;;16.16;100.00
73240;BME280;61452;40.054;4.110;2023-12-07T14:22:57;101919.09;;;16.15;100.00
73240;BME280;61452;40.054;4.110;2023-12-07T14:27:59;101922.59;;;16.16;100.00
73240;BME280;61452;40.054;4.110;2023-12-07T14:33:02;101913.63;;;16.18;100.00
73240;BME280;61452;40.054;4.110;2023-12-07T14:38:04;101915.50;;;16.16;100.00
73240;BME280;61452;40.054;4.110;2023-12-07T14:43:06;101916.25;;;16.18;100.00
73240;BME280;61452;40.054;4.110;2023-12-07T14:48:08;101918.91;;;16.18;100.00
73240;BME280;61452;40.054;4.110;2023-12-07T14:53:10;101914.47;;;16.19;100.00
73240;BME280;61452;40.054;4.110;2023-12-07T14:58:13;101919.69;;;16.21;100.00
73240;BME280;61452;40.054;4.110;2023-12-07T15:03:15;101917.91;;;16.21;100.00
73240;BME280;61452;40.054;4.110;2023-12-07T15:08:17;101926.78;;;16.20;100.00
73240;BME280;61452;40.054;4.110;2023-12-07T15:13:19;101927.63;;;16.21;100.00
73240;BME280;61452;40.054;4.110;2023-12-07T15:18:22;101916.13;;;16.22;100.00
73240;BME280;61452;40.054;4.110;2023-12-07T15:23:24;101927.63;;;16.21;100.00
73240;BME280;61452;40.054;4.110;2023-12-07T15:28:26;101924.06;;;16.22;100.00
73240;BME280;61452;40.054;4.110;2023-12-07T15:33:29;101920.56;;;16.21;100.00
73240;BME280;61452;40.054;4.110;2023-12-07T15:38:32;101924.91;;;16.22;100.00
73240;BME280;61452;40.054;4.110;2023-12-07T15:43:34;101926.53;;;16.25;100.00
73240;BME280;61452;40.054;4.110;2023-12-07T15:48:36;101925.78;;;16.23;100.00
73240;BME280;61452;40.054;4.110;2023-12-07T15:53:38;101921.41;;;16.22;100.00
73240;BME280;61452;40.054;4.110;2023-12-07T15:58:40;101938.03;;;16.24;100.00
73240;BME280;61452;40.054;4.110;2023-12-07T16:03:43;101932.75;;;16.24;100.00
73240;BME280;61452;40.054;4.110;2023-12-07T16:08:45;101925.78;;;16.23;100.00
73240;BME280;61452;40.054;4.110;2023-12-07T16:13:47;101938.03;;;16.24;100.00
73240;BME280;61452;40.054;4.110;2023-12-07T16:18:49;101933.59;;;16.24;100.00
73240;BME280;61452;40.054;4.110;2023-12-07T16:23:52;101931.81;;;16.25;100.00
73240;BME280;61452;40.054;4.110;2023-12-07T16:28:54;101919.44;;;16.25;100.00
73240;BME280;61452;40.054;4.110;2023-12-07T16:33:56;101922.00;;;16.27;100.00
73240;BME280;61452;40.054;4.110;2023-12-07T16:39:02;101928.25;;;16.26;100.00
73240;BME280;61452;40.054;4.110;2023-12-07T16:44:07;101925.59;;;16.26;100.00
73240;BME280;61452;40.054;4.110;2023-12-07T16:49:09;101928.25;;;16.26;100.00
73240;BME280;61452;40.054;4.110;2023-12-07T16:54:12;101922.94;;;16.26;100.00
73240;BME280;61452;40.054;4.110;2023-12-07T16:59:14;101929.94;;;16.27;100.00
73240;BME280;61452;40.054;4.110;2023-12-07T17:04:18;101935.25;;;16.27;100.00
73240;BME280;61452;40.054;4.110;2023-12-07T17:09:20;101937.03;;;16.26;100.00
73240;BME280;61452;40.054;4.110;2023-12-07T17:14:22;101928.25;;;16.26;100.00
73240;BME280;61452;40.054;4.110;2023-12-07T17:19:25;101926.44;;;16.26;100.00
73240;BME280;61452;40.054;4.110;2023-12-07T17:24:35;101922.88;;;16.27;100.00
73240;BME280;61452;40.054;4.110;2023-12-07T17:29:38;101913.13;;;16.28;100.00
73240;BME280;61452;40.054;4.110;2023-12-07T17:34:40;101912.28;;;16.27;100.00
73240;BME280;61452;40.054;4.110;2023-12-07T17:39:43;101914.00;;;16.28;100.00
73240;BME280;61452;40.054;4.110;2023-12-07T17:44:45;101914.06;;;16.27;100.00
73240;BME280;61452;40.054;4.110;2023-12-07T17:49:47;101922.88;;;16.27;100.00
73240;BME280;61452;40.054;4.110;2023-12-07T17:54:49;101920.22;;;16.27;100.00
73240;BME280;61452;40.054;4.110;2023-12-07T17:59:51;101925.50;;;16.27;100.00
73240;BME280;61452;40.054;4.110;2023-12-07T18:04:54;101923.72;;;16.28;100.00
73240;BME280;61452;40.054;4.110;2023-12-07T18:09:56;101920.22;;;16.27;100.00
73240;BME280;61452;40.054;4.110;2023-12-07T18:15:00;101928.16;;;16.27;100.00
73240;BME280;61452;40.054;4.110;2023-12-07T18:20:03;101921.09;;;16.28;100.00
73240;BME280;61452;40.054;4.110;2023-12-07T18:25:06;101915.72;;;16.29;100.00
73240;BME280;61452;40.054;4.110;2023-12-07T18:30:08;101919.19;;;16.30;100.00
73240;BME280;61452;40.054;4.110;2023-12-07T18:35:11;101911.34;;;16.28;100.00
73240;BME280;61452;40.054;4.110;2023-12-07T18:40:13;101917.50;;;16.29;100.00
73240;BME280;61452;40.054;4.110;2023-12-07T18:45:15;101909.44;;;16.30;100.00
73240;BME280;61452;40.054;4.110;2023-12-07T18:50:17;101916.63;;;16.28;100.00
73240;BME280;61452;40.054;4.110;2023-12-07T18:55:19;101919.19;;;16.30;100.00
73240;BME280;61452;40.054;4.110;2023-12-07T19:00:21;101925.44;;;16.29;100.00
73240;BME280;61452;40.054;4.110;2023-12-07T19:05:25;101919.19;;;16.30;100.00
73240;BME280;61452;40.054;4.110;2023-12-07T19:10:27;101922.69;;;16.30;100.00
73240;BME280;61452;40.054;4.110;2023-12-07T19:15:30;101911.25;;;16.30;100.00
73240;BME280;61452;40.054;4.110;2023-12-07T19:20:32;101908.69;;;16.28;100.00
73240;BME280;61452;40.054;4.110;2023-12-07T19:25:34;101913.81;;;16.31;100.00
73240;BME280;61452;40.054;4.110;2023-12-07T19:30:36;101906.06;;;16.28;100.00
73240;BME280;61452;40.054;4.110;2023-12-07T19:35:38;101901.63;;;16.29;100.00
73240;BME280;61452;40.054;4.110;2023-12-07T19:40:41;101903.28;;;16.30;100.00
73240;BME280;61452;40.054;4.110;2023-12-07T19:45:43;101892.72;;;16.30;100.00
73240;BME280;61452;40.054;4.110;2023-12-07T19:50:46;101896.31;;;16.29;100.00
73240;BME280;61452;40.054;4.110;2023-12-07T19:55:48;101882.97;;;16.30;100.00
73240;BME280;61452;40.054;4.110;2023-12-07T20:00:50;101880.44;;;16.29;100.00
73240;BME280;61452;40.054;4.110;2023-12-07T20:05:52;101878.66;;;16.29;100.00
73240;BME280;61452;40.054;4.110;2023-12-07T20:10:54;101868.97;;;16.28;100.00
73240;BME280;61452;40.054;4.110;2023-12-07T20:15:56;101860.13;;;16.29;100.00
73240;BME280;61452;40.054;4.110;2023-12-07T20:20:58;101857.34;;;16.31;100.00
73240;BME280;61452;40.054;4.110;2023-12-07T20:26:03;101848.66;;;16.29;100.00
73240;BME280;61452;40.054;4.110;2023-12-07T20:31:05;101851.31;;;16.29;100.00
73240;BME280;61452;40.054;4.110;2023-12-07T20:36:07;101844.22;;;16.29;100.00
73240;BME280;61452;40.054;4.110;2023-12-07T20:41:10;101831.81;;;16.30;100.00
73240;BME280;61452;40.054;4.110;2023-12-07T20:46:12;101833.53;;;16.31;100.00
73240;BME280;61452;40.054;4.110;2023-12-07T20:51:14;101836.28;;;16.29;100.00
73240;BME280;61452;40.054;4.110;2023-12-07T20:56:16;101839.69;;;16.31;100.00
73240;BME280;61452;40.054;4.110;2023-12-07T21:01:20;101829.09;;;16.31;100.00
73240;BME280;61452;40.054;4.110;2023-12-07T21:06:22;101834.38;;;16.31;100.00
73240;BME280;61452;40.054;4.110;2023-12-07T21:11:28;101820.28;;;16.31;100.00
73240;BME280;61452;40.054;4.110;2023-12-07T21:16:30;101820.28;;;16.31;100.00
73240;BME280;61452;40.054;4.110;2023-12-07T21:21:32;101832.66;;;16.30;100.00
73240;BME280;61452;40.054;4.110;2023-12-07T21:26:34;101840.63;;;16.30;100.00
73240;BME280;61452;40.054;4.110;2023-12-07T21:31:36;101838.94;;;16.29;100.00
73240;BME280;61452;40.054;4.110;2023-12-07T21:36:38;101835.31;;;16.30;100.00
73240;BME280;61452;40.054;4.110;2023-12-07T21:41:46;101830.13;;;16.29;100.00
73240;BME280;61452;40.054;4.110;2023-12-07T21:46:51;101820.41;;;16.29;100.00
73240;BME280;61452;40.054;4.110;2023-12-07T21:51:53;101813.28;;;16.30;100.00
73240;BME280;61452;40.054;4.110;2023-12-07T21:56:55;101809.81;;;16.29;100.00
73240;BME280;61452;40.054;4.110;2023-12-07T22:01:58;101804.50;;;16.29;100.00
73240;BME280;61452;40.054;4.110;2023-12-07T22:07:00;101790.31;;;16.30;100.00
73240;BME280;61452;40.054;4.110;2023-12-07T22:12:02;101795.59;;;16.30;100.00
73240;BME280;61452;40.054;4.110;2023-12-07T22:17:05;101788.50;;;16.31;100.00
73240;BME280;61452;40.054;4.110;2023-12-07T22:22:07;101782.38;;;16.30;100.00
73240;BME280;61452;40.054;4.110;2023-12-07T22:27:09;101783.34;;;16.29;100.00
73240;BME280;61452;40.054;4.110;2023-12-07T22:32:12;101794.75;;;16.30;100.00
73240;BME280;61452;40.054;4.110;2023-12-07T22:37:14;101785.13;;;16.29;100.00
73240;BME280;61452;40.054;4.110;2023-12-07T22:42:16;101774.53;;;16.29;100.00
73240;BME280;61452;40.054;4.110;2023-12-07T22:47:18;101765.63;;;16.30;100.00
73240;BME280;61452;40.054;4.110;2023-12-07T22:52:20;101762.97;;;16.30;100.00
73240;BME280;61452;40.054;4.110;2023-12-07T22:57:22;101751.56;;;16.29;100.00
73240;BME280;61452;40.054;4.110;2023-12-07T23:02:25;101751.56;;;16.29;100.00
73240;BME280;61452;40.054;4.110;2023-12-07T23:07:27;101740.84;;;16.31;100.00
73240;BME280;61452;40.054;4.110;2023-12-07T23:12:29;101742.56;;;16.32;100.00
73240;BME280;61452;40.054;4.110;2023-12-07T23:17:31;101738.22;;;16.31;100.00
73240;BME280;61452;40.054;4.110;2023-12-07T23:22:33;101731.13;;;16.31;100.00
73240;BME280;61452;40.054;4.110;2023-12-07T23:27:35;101721.47;;;16.30;100.00
73240;BME280;61452;40.054;4.110;2023-12-07T23:32:37;101710.88;;;16.30;100.00
73240;BME280;61452;40.054;4.110;2023-12-07T23:37:40;101695.00;;;16.30;100.00
73240;BME280;61452;40.054;4.110;2023-12-07T23:42:42;101694.16;;;16.30;100.00
73240;BME280;61452;40.054;4.110;2023-12-07T23:47:44;101685.25;;;16.31;100.00
73240;BME280;61452;40.054;4.110;2023-12-07T23:52:46;101677.31;;;16.31;100.00
73240;BME280;61452;40.054;4.110;2023-12-07T23:57:48;101675.59;;;16.30;100.00
